createdAt,value
2022-09-20T00:01:43.654Z,11.10
2022-09-20T00:04:12.310Z,11.00
2022-09-20T00:06:40.951Z,11.00
2022-09-20T00:09:09.590Z,11.00
2022-09-20T00:11:40.163Z,11.00
2022-09-20T00:14:09.571Z,11.00
2022-09-20T00:16:42.110Z,11.00
2022-09-20T00:19:19.929Z,11.10
2022-09-20T00:21:48.960Z,11.00
2022-09-20T00:24:17.521Z,11.00
2022-09-20T00:26:48.081Z,11.00
2022-09-20T00:29:16.982Z,11.00
2022-09-20T00:31:45.647Z,11.00
2022-09-20T00:34:32.115Z,11.00
2022-09-20T00:37:00.631Z,10.90
2022-09-20T00:39:29.245Z,11.00
2022-09-20T00:41:59.159Z,10.90
2022-09-20T00:44:59.186Z,10.90
2022-09-20T00:47:37.371Z,10.90
2022-09-20T00:50:34.818Z,10.80
2022-09-20T00:53:10.661Z,10.80
2022-09-20T00:55:48.119Z,10.70
2022-09-20T00:58:21.294Z,10.80
2022-09-20T01:00:54.136Z,10.70
2022-09-20T01:03:25.829Z,10.80
2022-09-20T01:05:57.282Z,10.70
2022-09-20T01:08:26.074Z,10.70
2022-09-20T01:10:55.186Z,10.70
2022-09-20T01:13:25.141Z,10.70
2022-09-20T01:15:55.379Z,10.70
2022-09-20T01:18:25.307Z,10.70
2022-09-20T01:20:54.346Z,10.70
2022-09-20T01:23:50.068Z,10.70
2022-09-20T01:26:51.645Z,10.60
2022-09-20T01:29:44.330Z,10.60
2022-09-20T01:32:18.566Z,10.70
2022-09-20T01:34:53.099Z,10.60
2022-09-20T01:37:31.912Z,10.60
2022-09-20T01:40:11.484Z,10.60
2022-09-20T01:42:48.188Z,10.50
2022-09-20T01:45:28.680Z,10.50
2022-09-20T01:48:12.533Z,10.50
2022-09-20T01:51:22.120Z,10.50
2022-09-20T01:54:41.666Z,10.40
2022-09-20T01:57:38.570Z,10.50
2022-09-20T02:00:13.387Z,10.50
2022-09-20T02:03:51.843Z,10.50
2022-09-20T02:06:57.212Z,10.50
2022-09-20T02:10:05.000Z,10.40
2022-09-20T02:12:55.264Z,10.40
2022-09-20T02:16:06.157Z,10.40
2022-09-20T02:18:57.828Z,10.40
2022-09-20T02:21:38.751Z,10.30
2022-09-20T02:24:21.589Z,10.40
2022-09-20T02:27:09.062Z,10.30
2022-09-20T02:29:49.784Z,10.30
2022-09-20T02:32:36.655Z,10.30
2022-09-20T02:35:53.116Z,10.30
2022-09-20T02:38:50.662Z,10.30
2022-09-20T02:42:01.021Z,10.30
2022-09-20T02:44:53.620Z,10.30
2022-09-20T02:47:33.754Z,10.30
2022-09-20T02:50:24.205Z,10.30
2022-09-20T02:53:17.004Z,10.30
2022-09-20T02:56:01.873Z,10.30
2022-09-20T02:58:45.043Z,10.30
2022-09-20T03:01:35.659Z,10.30
2022-09-20T03:04:25.116Z,10.30
2022-09-20T03:07:04.758Z,10.30
2022-09-20T03:09:48.536Z,10.30
2022-09-20T03:12:40.899Z,10.30
2022-09-20T03:15:28.545Z,10.30
2022-09-20T03:18:11.545Z,10.30
2022-09-20T03:20:59.280Z,10.30
2022-09-20T03:23:49.917Z,10.30
2022-09-20T03:26:36.853Z,10.30
2022-09-20T03:29:14.303Z,10.30
2022-09-20T03:32:02.743Z,10.30
2022-09-20T03:34:49.407Z,10.30
2022-09-20T03:37:50.813Z,10.30
2022-09-20T03:40:54.243Z,10.40
2022-09-20T03:43:46.750Z,10.40
2022-09-20T03:46:21.493Z,10.40
2022-09-20T03:49:51.172Z,10.40
2022-09-20T03:52:52.604Z,10.40
2022-09-20T03:56:12.936Z,10.40
2022-09-20T03:59:12.256Z,10.40
2022-09-20T04:02:10.524Z,10.40
2022-09-20T04:04:48.966Z,10.40
2022-09-20T04:07:25.682Z,10.40
2022-09-20T04:10:29.387Z,10.40
2022-09-20T04:13:20.963Z,10.40
2022-09-20T04:16:09.113Z,10.40
2022-09-20T04:18:46.483Z,10.40
2022-09-20T04:21:23.962Z,10.30
2022-09-20T04:24:05.260Z,10.30
2022-09-20T04:26:40.043Z,10.30
2022-09-20T04:29:29.173Z,10.30
2022-09-20T04:32:13.301Z,10.30
2022-09-20T04:35:07.590Z,10.40
2022-09-20T04:37:39.735Z,10.60
2022-09-20T04:40:32.884Z,10.70
2022-09-20T04:43:56.096Z,10.70
2022-09-20T04:47:12.057Z,10.80
2022-09-20T04:50:28.589Z,10.80
2022-09-20T04:53:51.427Z,10.80
2022-09-20T04:56:28.323Z,10.90
2022-09-20T04:59:10.342Z,10.90
2022-09-20T05:02:42.686Z,10.90
2022-09-20T05:05:42.195Z,11.00
2022-09-20T05:09:05.379Z,11.00
2022-09-20T05:12:12.333Z,11.40
2022-09-20T05:15:18.920Z,11.60
2022-09-20T05:18:21.003Z,11.50
2022-09-20T05:21:34.236Z,11.40
2022-09-20T05:24:26.249Z,11.30
2022-09-20T05:27:17.737Z,11.40
2022-09-20T05:29:58.970Z,11.40
2022-09-20T05:32:41.212Z,11.50
2022-09-20T05:35:24.180Z,11.50
2022-09-20T05:38:08.444Z,11.60
2022-09-20T05:41:00.077Z,11.60
2022-09-20T05:43:35.387Z,11.60
2022-09-20T05:46:23.301Z,11.70
2022-09-20T05:49:04.074Z,11.70
2022-09-20T05:52:02.408Z,11.80
2022-09-20T05:55:06.348Z,11.80
2022-09-20T05:57:57.126Z,11.90
2022-09-20T06:00:30.860Z,12.00
2022-09-20T06:03:15.484Z,12.00
2022-09-20T06:06:00.214Z,12.00
2022-09-20T06:09:02.140Z,12.00
2022-09-20T06:12:22.884Z,11.90
2022-09-20T06:15:04.903Z,12.00
2022-09-20T06:17:42.361Z,11.90
2022-09-20T06:20:26.694Z,11.90
2022-09-20T06:22:59.221Z,12.00
2022-09-20T06:25:35.938Z,12.00
2022-09-20T06:28:14.860Z,11.90
2022-09-20T06:30:49.133Z,11.90
2022-09-20T06:33:21.676Z,11.90
2022-09-20T06:35:59.089Z,11.80
2022-09-20T06:39:06.983Z,11.80
2022-09-20T06:41:38.721Z,11.80
2022-09-20T06:44:09.019Z,11.70
2022-09-20T06:46:38.641Z,11.80
2022-09-20T06:49:09.742Z,11.70
2022-09-20T06:51:40.751Z,11.80
2022-09-20T06:54:17.951Z,11.80
2022-09-20T06:56:48.068Z,11.90
2022-09-20T06:59:18.485Z,11.90
2022-09-20T07:01:47.926Z,12.10
2022-09-20T07:04:16.600Z,11.90
2022-09-20T07:06:45.238Z,11.90
2022-09-20T07:09:14.400Z,12.00
2022-09-20T07:11:43.268Z,12.00
2022-09-20T07:14:12.290Z,12.00
2022-09-20T07:16:42.486Z,12.00
2022-09-20T07:19:11.359Z,12.10
2022-09-20T07:21:40.840Z,12.10
2022-09-20T07:24:10.134Z,12.10
2022-09-20T07:26:39.440Z,12.10
2022-09-20T07:29:08.514Z,12.20
2022-09-20T07:31:37.224Z,12.20
2022-09-20T07:34:07.810Z,12.30
2022-09-20T07:36:36.452Z,12.30
2022-09-20T07:39:05.353Z,12.50
2022-09-20T07:41:33.967Z,12.60
2022-09-20T07:44:21.036Z,12.50
2022-09-20T07:46:50.353Z,12.60
2022-09-20T07:49:21.360Z,12.60
2022-09-20T07:51:50.595Z,12.60
2022-09-20T07:54:20.226Z,12.70
2022-09-20T07:56:49.354Z,12.60
2022-09-20T07:59:17.967Z,12.70
2022-09-20T08:01:46.971Z,12.80
2022-09-20T08:04:15.649Z,12.80
2022-09-20T08:06:47.609Z,12.70
2022-09-20T08:09:16.288Z,12.60
2022-09-20T08:11:45.488Z,12.50
2022-09-20T08:14:16.429Z,12.60
2022-09-20T08:16:47.592Z,12.60
2022-09-20T08:19:19.520Z,12.70
2022-09-20T08:21:50.966Z,12.70
2022-09-20T08:24:19.662Z,12.90
2022-09-20T08:26:49.507Z,13.00
2022-09-20T08:29:18.153Z,13.00
2022-09-20T08:31:47.332Z,13.10
2022-09-20T08:34:17.811Z,13.10
2022-09-20T08:36:51.920Z,13.20
2022-09-20T08:42:20.766Z,13.20
2022-09-20T08:44:59.558Z,13.40
2022-09-20T08:47:33.386Z,13.50
2022-09-20T08:50:10.179Z,13.50
2022-09-20T08:52:42.476Z,13.50
2022-09-20T08:55:18.745Z,13.50
2022-09-20T08:57:52.113Z,13.70
2022-09-20T09:00:25.577Z,13.60
2022-09-20T09:02:59.602Z,13.80
2022-09-20T09:05:36.092Z,14.20
2022-09-20T09:08:16.279Z,14.70
2022-09-20T09:10:54.394Z,15.10
2022-09-20T09:13:30.291Z,15.20
2022-09-20T09:16:03.596Z,15.20
2022-09-20T09:18:37.372Z,15.20
2022-09-20T09:21:09.505Z,15.10
2022-09-20T09:23:51.763Z,15.10
2022-09-20T09:26:24.121Z,15.00
2022-09-20T09:29:18.872Z,15.20
2022-09-20T09:31:50.505Z,15.60
2022-09-20T09:34:29.033Z,16.00
2022-09-20T09:36:58.852Z,15.90
2022-09-20T09:39:32.067Z,15.90
2022-09-20T09:42:02.091Z,15.70
2022-09-20T09:44:34.044Z,15.50
2022-09-20T09:47:03.409Z,15.40
2022-09-20T09:49:36.398Z,15.20
2022-09-20T09:52:14.605Z,14.90
2022-09-20T09:54:50.862Z,14.80
2022-09-20T09:57:46.632Z,14.70
2022-09-20T10:00:21.866Z,14.70
2022-09-20T10:03:14.639Z,14.80
2022-09-20T10:06:04.626Z,14.90
2022-09-20T10:08:51.477Z,15.00
2022-09-20T10:11:38.028Z,15.00
2022-09-20T10:14:25.692Z,15.10
2022-09-20T10:17:20.722Z,15.10
2022-09-20T10:20:16.576Z,15.30
2022-09-20T10:23:30.131Z,15.30
2022-09-20T10:25:59.045Z,15.40
2022-09-20T10:28:50.486Z,15.90
2022-09-20T10:31:37.321Z,16.10
2022-09-20T10:34:38.132Z,16.00
2022-09-20T10:37:19.207Z,16.10
2022-09-20T10:40:00.209Z,16.00
2022-09-20T10:42:59.464Z,15.80
2022-09-20T10:46:08.861Z,15.80
2022-09-20T10:48:39.640Z,15.80
2022-09-20T10:51:20.130Z,15.80
2022-09-20T10:54:01.409Z,15.90
2022-09-20T10:56:36.874Z,15.80
2022-09-20T10:59:33.569Z,15.70
2022-09-20T11:02:29.298Z,15.70
2022-09-20T11:05:35.789Z,15.80
2022-09-20T11:08:13.394Z,16.10
2022-09-20T11:10:48.439Z,16.60
2022-09-20T11:13:28.986Z,17.00
2022-09-20T11:16:07.376Z,17.20
2022-09-20T11:18:46.713Z,17.30
2022-09-20T11:21:26.478Z,17.00
2022-09-20T11:24:04.254Z,16.90
2022-09-20T11:26:39.382Z,16.40
2022-09-20T11:29:20.882Z,16.10
2022-09-20T11:31:55.901Z,16.10
2022-09-20T11:34:33.235Z,15.80
2022-09-20T11:37:04.006Z,15.70
2022-09-20T11:39:46.375Z,15.30
2022-09-20T11:42:21.341Z,15.00
2022-09-20T11:44:51.336Z,15.10
2022-09-20T11:47:52.706Z,15.10
2022-09-20T11:51:05.119Z,15.00
2022-09-20T11:53:59.195Z,15.00
2022-09-20T11:56:32.567Z,15.00
2022-09-20T11:59:04.999Z,15.10
2022-09-20T12:01:38.625Z,15.10
2022-09-20T12:04:31.883Z,15.10
2022-09-20T12:07:11.557Z,15.00
2022-09-20T12:09:46.435Z,15.00
2022-09-20T12:12:27.273Z,15.10
2022-09-20T12:14:59.037Z,15.20
2022-09-20T12:18:24.524Z,15.20
2022-09-20T12:21:20.443Z,15.30
2022-09-20T12:24:27.052Z,15.50
2022-09-20T12:26:57.914Z,15.50
2022-09-20T12:30:19.386Z,15.70
2022-09-20T12:32:58.232Z,16.00
2022-09-20T12:36:28.241Z,16.10
2022-09-20T12:39:05.902Z,16.30
2022-09-20T12:41:54.271Z,16.30
2022-09-20T12:44:37.847Z,16.20
2022-09-20T12:47:18.519Z,16.10
2022-09-20T12:50:12.598Z,16.10
2022-09-20T12:53:00.816Z,16.20
2022-09-20T12:55:43.852Z,16.20
2022-09-20T12:58:36.021Z,16.20
2022-09-20T13:01:40.506Z,16.20
2022-09-20T13:05:03.209Z,16.10
2022-09-20T13:07:43.797Z,16.10
2022-09-20T13:10:27.658Z,16.10
2022-09-20T13:13:08.673Z,16.10
2022-09-20T13:15:41.288Z,16.10
2022-09-20T13:18:15.623Z,16.20
2022-09-20T13:20:45.039Z,16.10
2022-09-20T13:23:26.285Z,16.10
2022-09-20T13:25:59.544Z,16.10
2022-09-20T13:28:41.609Z,16.20
2022-09-20T13:31:35.862Z,16.10
2022-09-20T13:34:25.917Z,16.20
2022-09-20T13:36:59.513Z,16.30
2022-09-20T13:39:36.187Z,16.40
2022-09-20T13:42:11.820Z,16.40
2022-09-20T13:44:41.325Z,16.20
2022-09-20T13:47:30.285Z,16.20
2022-09-20T13:50:03.974Z,16.00
2022-09-20T13:52:34.286Z,15.80
2022-09-20T13:55:26.357Z,15.60
2022-09-20T13:57:57.581Z,15.50
2022-09-20T14:00:26.864Z,15.40
2022-09-20T14:02:58.562Z,15.40
2022-09-20T14:05:31.228Z,15.50
2022-09-20T14:08:02.201Z,15.50
2022-09-20T14:10:37.022Z,15.50
2022-09-20T14:13:12.783Z,15.60
2022-09-20T14:15:46.576Z,15.70
2022-09-20T14:18:21.360Z,15.50
2022-09-20T14:20:50.671Z,15.70
2022-09-20T14:23:25.528Z,15.80
2022-09-20T14:26:25.888Z,15.80
2022-09-20T14:28:54.952Z,15.70
2022-09-20T14:31:28.959Z,15.70
2022-09-20T14:34:04.027Z,15.50
2022-09-20T14:36:33.190Z,15.20
2022-09-20T14:39:06.127Z,15.00
2022-09-20T14:41:38.712Z,14.80
2022-09-20T14:44:26.034Z,14.80
2022-09-20T14:46:55.525Z,14.70
2022-09-20T14:49:34.648Z,14.50
2022-09-20T14:52:39.514Z,14.50
2022-09-20T14:55:28.608Z,14.40
2022-09-20T14:58:09.318Z,14.20
2022-09-20T15:00:58.044Z,14.30
2022-09-20T15:03:32.165Z,14.40
2022-09-20T15:06:02.356Z,14.30
2022-09-20T15:08:31.396Z,14.20
2022-09-20T15:11:01.703Z,14.20
2022-09-20T15:13:30.574Z,14.20
2022-09-20T15:16:00.579Z,14.10
2022-09-20T15:18:34.937Z,14.20
2022-09-20T15:21:05.987Z,14.10
2022-09-20T15:23:35.695Z,14.20
2022-09-20T15:26:05.191Z,14.20
2022-09-20T15:28:35.681Z,14.30
2022-09-20T15:31:04.517Z,14.40
2022-09-20T15:33:34.044Z,14.40
2022-09-20T15:36:05.771Z,14.30
2022-09-20T15:38:34.656Z,14.30
2022-09-20T15:41:04.940Z,14.40
2022-09-20T15:43:33.796Z,14.40
2022-09-20T15:46:20.701Z,14.40
2022-09-20T15:48:49.788Z,14.30
2022-09-20T15:51:19.949Z,14.20
2022-09-20T15:53:56.793Z,14.20
2022-09-20T15:56:28.576Z,14.20
2022-09-20T15:59:00.457Z,14.00
2022-09-20T16:01:31.570Z,14.00
2022-09-20T16:04:01.614Z,14.00
2022-09-20T16:06:34.264Z,14.00
2022-09-20T16:09:03.649Z,13.90
2022-09-20T16:11:32.371Z,13.80
2022-09-20T16:14:02.755Z,13.70
2022-09-20T16:16:39.702Z,13.70
2022-09-20T16:19:17.519Z,13.70
2022-09-20T16:21:55.067Z,13.60
2022-09-20T16:24:28.329Z,13.60
2022-09-20T16:26:57.145Z,13.50
2022-09-20T16:29:27.015Z,13.40
2022-09-20T16:31:57.691Z,13.40
2022-09-20T16:34:29.773Z,13.40
2022-09-20T16:37:01.777Z,13.30
2022-09-20T16:39:31.837Z,13.10
2022-09-20T16:42:04.527Z,13.00
2022-09-20T16:44:35.359Z,12.90
2022-09-20T16:47:08.093Z,12.90
2022-09-20T16:49:37.204Z,12.90
2022-09-20T16:52:08.773Z,12.90
2022-09-20T16:54:37.619Z,12.80
2022-09-20T16:57:06.740Z,12.70
2022-09-20T16:59:35.562Z,12.60
2022-09-20T17:02:04.500Z,12.40
2022-09-20T17:04:33.426Z,12.40
2022-09-20T17:07:02.347Z,12.40
2022-09-20T17:09:32.491Z,12.40
2022-09-20T17:12:01.460Z,12.50
2022-09-20T17:14:30.717Z,12.40
2022-09-20T17:16:59.621Z,12.40
2022-09-20T17:19:28.871Z,12.40
2022-09-20T17:21:57.541Z,12.30
2022-09-20T17:24:26.337Z,12.30
2022-09-20T17:26:56.560Z,12.30
2022-09-20T17:29:25.371Z,12.30
2022-09-20T17:31:58.984Z,12.20
2022-09-20T17:34:31.866Z,12.30
2022-09-20T17:37:01.766Z,12.30
2022-09-20T17:39:34.166Z,12.30
2022-09-20T17:42:04.607Z,12.30
2022-09-20T17:44:36.836Z,12.40
2022-09-20T17:47:06.725Z,12.30
2022-09-20T17:49:37.459Z,12.30
2022-09-20T17:52:08.197Z,12.30
2022-09-20T17:54:36.871Z,12.40
2022-09-20T17:57:09.409Z,12.30
2022-09-20T17:59:38.197Z,12.30
2022-09-20T18:02:07.006Z,12.20
2022-09-20T18:04:37.704Z,12.20
2022-09-20T18:07:06.733Z,12.20
2022-09-20T18:09:35.455Z,12.30
2022-09-20T18:12:05.145Z,12.30
2022-09-20T18:14:35.534Z,12.20
2022-09-20T18:17:05.451Z,12.10
2022-09-20T18:19:34.271Z,12.20
2022-09-20T18:22:04.350Z,12.10
2022-09-20T18:24:33.462Z,12.10
2022-09-20T18:27:02.366Z,12.10
2022-09-20T18:29:36.675Z,12.00
2022-09-20T18:32:08.798Z,11.90
2022-09-20T18:34:37.584Z,12.00
2022-09-20T18:37:13.784Z,12.10
2022-09-20T18:39:43.387Z,11.90
2022-09-20T18:42:13.200Z,11.90
2022-09-20T18:44:44.008Z,11.90
2022-09-20T18:47:14.136Z,12.00
2022-09-20T18:49:43.425Z,12.00
2022-09-20T18:52:13.247Z,11.90
2022-09-20T18:54:43.122Z,11.90
2022-09-20T18:57:12.965Z,12.00
2022-09-20T18:59:53.596Z,12.00
2022-09-20T19:02:55.761Z,12.00
2022-09-20T19:05:35.899Z,11.90
2022-09-20T19:08:25.812Z,11.80
2022-09-20T19:11:01.067Z,11.70
2022-09-20T19:13:45.055Z,11.70
2022-09-20T19:16:30.775Z,11.70
2022-09-20T19:19:34.991Z,11.50
2022-09-20T19:22:17.585Z,11.50
2022-09-20T19:25:07.823Z,11.40
2022-09-20T19:27:37.479Z,11.50
2022-09-20T19:30:08.519Z,11.40
2022-09-20T19:32:38.597Z,11.40
2022-09-20T19:35:23.275Z,11.30
2022-09-20T19:38:05.816Z,11.30
2022-09-20T19:40:46.677Z,11.30
2022-09-20T19:43:50.708Z,11.30
2022-09-20T19:46:50.944Z,11.20
2022-09-20T19:49:32.007Z,11.20
2022-09-20T19:52:04.653Z,11.20
2022-09-20T19:54:34.534Z,11.20
2022-09-20T19:57:08.341Z,11.20
2022-09-20T19:59:38.805Z,11.30
2022-09-20T20:02:12.720Z,11.30
2022-09-20T20:04:43.380Z,11.30
2022-09-20T20:07:28.203Z,11.30
2022-09-20T20:10:13.386Z,11.20
2022-09-20T20:12:54.256Z,11.20
2022-09-20T20:15:45.917Z,11.20
2022-09-20T20:18:29.845Z,11.20
2022-09-20T20:21:00.504Z,11.20
2022-09-20T20:23:53.257Z,11.20
2022-09-20T20:26:23.696Z,11.10
2022-09-20T20:28:52.997Z,11.20
2022-09-20T20:31:23.018Z,11.20
2022-09-20T20:33:51.845Z,11.20
2022-09-20T20:36:20.440Z,11.20
2022-09-20T20:38:52.723Z,11.20
2022-09-20T20:41:23.772Z,11.20
2022-09-20T20:43:57.195Z,11.20
2022-09-20T20:46:26.190Z,11.10
2022-09-20T20:48:55.531Z,11.10
2022-09-20T20:51:24.818Z,11.00
2022-09-20T20:53:56.357Z,11.10
2022-09-20T20:56:28.626Z,11.00
2022-09-20T20:59:00.905Z,10.90
2022-09-20T21:01:32.885Z,10.80
2022-09-20T21:04:03.119Z,10.80
2022-09-20T21:06:34.522Z,10.80
2022-09-20T21:09:06.664Z,10.80
2022-09-20T21:11:37.904Z,10.80
2022-09-20T21:14:08.154Z,10.90
2022-09-20T21:16:45.153Z,10.80
2022-09-20T21:19:16.579Z,10.80
2022-09-20T21:21:47.327Z,10.70
2022-09-20T21:24:18.115Z,10.60
2022-09-20T21:26:48.696Z,10.70
2022-09-20T21:29:18.137Z,10.70
2022-09-20T21:31:48.274Z,10.60
2022-09-20T21:34:17.927Z,10.60
2022-09-20T21:36:46.834Z,10.60
2022-09-20T21:39:16.927Z,10.50
2022-09-20T21:41:47.480Z,10.50
2022-09-20T21:44:17.232Z,10.50
2022-09-20T21:46:45.952Z,10.50
2022-09-20T21:49:14.583Z,10.60
2022-09-20T21:51:45.231Z,10.60
2022-09-20T21:54:14.336Z,10.70
2022-09-20T21:56:44.362Z,10.70
2022-09-20T21:59:13.389Z,10.60
2022-09-20T22:01:42.242Z,10.60
2022-09-20T22:04:13.425Z,10.60
2022-09-20T22:06:44.895Z,10.60
2022-09-20T22:09:16.876Z,10.50
2022-09-20T22:11:49.567Z,10.60
2022-09-20T22:14:20.269Z,10.60
2022-09-20T22:16:51.413Z,10.50
2022-09-20T22:19:20.711Z,10.50
2022-09-20T22:21:51.550Z,10.50
2022-09-20T22:24:20.614Z,10.50
2022-09-20T22:26:53.683Z,10.50
2022-09-20T22:29:22.418Z,10.60
2022-09-20T22:31:51.643Z,10.50
2022-09-20T22:34:22.497Z,10.50
2022-09-20T22:36:52.231Z,10.40
2022-09-20T22:39:20.792Z,10.50
2022-09-20T22:41:52.622Z,10.50
2022-09-20T22:44:21.241Z,10.50
2022-09-20T22:46:50.820Z,10.40
2022-09-20T22:49:19.414Z,10.40
2022-09-20T22:51:47.975Z,10.30
2022-09-20T22:54:16.550Z,10.30
2022-09-20T22:56:45.131Z,10.30
2022-09-20T22:59:16.760Z,10.20
2022-09-20T23:01:47.475Z,10.20
2022-09-20T23:04:19.041Z,10.20
2022-09-20T23:06:54.544Z,10.20
2022-09-20T23:09:25.587Z,10.20
2022-09-20T23:11:54.509Z,10.20
2022-09-20T23:14:24.487Z,10.20
2022-09-20T23:16:53.362Z,10.10
2022-09-20T23:19:21.960Z,10.10
2022-09-20T23:21:50.513Z,10.10
2022-09-20T23:24:19.118Z,10.10
2022-09-20T23:26:47.995Z,10.00
2022-09-20T23:29:18.347Z,10.00
2022-09-20T23:31:48.665Z,10.00
2022-09-20T23:34:18.563Z,10.00
2022-09-20T23:36:48.140Z,10.10
2022-09-20T23:39:17.320Z,10.10
2022-09-20T23:41:50.679Z,10.10
2022-09-20T23:44:19.818Z,10.20
2022-09-20T23:46:49.772Z,10.10
2022-09-20T23:49:18.495Z,10.10
2022-09-20T23:51:47.086Z,10.10
2022-09-20T23:54:15.710Z,10.20
2022-09-20T23:56:44.288Z,10.20
2022-09-20T23:59:12.879Z,10.20
